메인 페이지
METAR-TAF:

METAR-TAF

공항 :

토론토, 온타리오, 캐나다

토론토 피어슨 국제공항

위도: 43-40N, 경도: 079-38W, 고도: 173m

현재 날씨관측

예보는 22분 전, 21:00시(UTC)에 발표되었습니다.
17kt, 순간 최대 풍속 23kt
온도 3°C
습도 56%
기압 1017 hPa
시정: 24.1km
고도 4000ft 상공 구름 많음
고도 7500ft 상공 구름 많음

METAR: CYYZ 192100Z 35017G23KT 15SM BKN040 BKN075 03/M05 A3004 RMK CU5AS2 SLP181

시각: 17:22 (21:22 UTC)

예보

예보는 44분 전, 20:38시(UTC)에 발표되었습니다.
예보 대상 시간: 19일 21시부터 20일 24시까지 (UTC)
북북서18kt, 순간 최대 풍속 28kt
시정: 10km
고도 3000ft 상공 구름 많음
일시적
19일 21시부터 19일 24시까지 (UTC)
시정: 10km
고도 2500ft 상공 흐림
약한소낙눈
전환 중
19일 21시부터 19일 23시까지 (UTC)
북북서20kt, 순간 최대 풍속 30kt
20일 0000시부터 (UTC)
북북서18kt, 순간 최대 풍속 28kt
시정: 10km
고도 3000ft 상공 구름 많음
전환 중
20일 00시부터 20일 01시까지 (UTC)
북서12kt, 순간 최대 풍속 22kt
20일 0300시부터 (UTC)
북북서15kt
시정: 10km
고도 4000ft 상공 구름 보통
전환 중
20일 12시부터 20일 14시까지 (UTC)
북북서15kt, 순간 최대 풍속 25kt

TAF: CYYZ 192038Z 1921/2024 33018G28KT P6SM BKN030 TEMPO 1921/1924 P6SM -SHSN OVC025 BECMG 1921/1923 33020G30KT FM200000 33018G28KT P6SM BKN030 BECMG 2000/2001 32012G22KT FM200300 34015KT P6SM SCT040 BECMG 2012/2014 33015G25KT RMK NXT FCST BY 200000Z

4,000개 이상의 공항 관측 자료 및 예보 (METAR 및 TAF 보고).

지도상에서 검색 가능한 기상관측소가 노란 점과 빨간 점으로 표시되어 있습니다.

기상관측소 명을 보려면 표시 위로 마우스를 이동하세요.

날씨 관측과 예보를 보려면 클릭하세요.

지도 변경 : 확대하려면 엑스 표시가 있는 녹색 버튼, 축소하려면 빼기 표시가 있는 녹색 버튼, 다음 페이지의 지도를 보려면 녹색 화살표를 클릭하세요.


METAR-TAF: